sensor_id;sensor_type;location;lat;lon;timestamp;P1;durP1;ratioP1;P2;durP2;ratioP2
12880;SDS011;6508;53.786;9.996;2022-08-18T00:01:44;26.90;;;25.20;;
12880;SDS011;6508;53.786;9.996;2022-08-18T00:04:14;26.05;;;24.25;;
12880;SDS011;6508;53.786;9.996;2022-08-18T00:07:02;26.92;;;25.02;;
12880;SDS011;6508;53.786;9.996;2022-08-18T00:09:30;27.10;;;24.95;;
12880;SDS011;6508;53.786;9.996;2022-08-18T00:11:59;23.60;;;21.80;;
12880;SDS011;6508;53.786;9.996;2022-08-18T00:14:27;24.50;;;22.73;;
12880;SDS011;6508;53.786;9.996;2022-08-18T00:16:55;23.92;;;22.10;;
12880;SDS011;6508;53.786;9.996;2022-08-18T00:19:24;23.17;;;21.75;;
12880;SDS011;6508;53.786;9.996;2022-08-18T00:22:13;21.25;;;19.75;;
12880;SDS011;6508;53.786;9.996;2022-08-18T00:24:42;22.35;;;20.63;;
12880;SDS011;6508;53.786;9.996;2022-08-18T00:27:15;20.58;;;19.38;;
12880;SDS011;6508;53.786;9.996;2022-08-18T00:29:49;20.20;;;19.00;;
12880;SDS011;6508;53.786;9.996;2022-08-18T00:32:17;20.13;;;18.98;;
12880;SDS011;6508;53.786;9.996;2022-08-18T00:34:47;18.63;;;17.63;;
12880;SDS011;6508;53.786;9.996;2022-08-18T00:37:14;18.45;;;17.45;;
12880;SDS011;6508;53.786;9.996;2022-08-18T00:39:42;18.48;;;17.17;;
12880;SDS011;6508;53.786;9.996;2022-08-18T00:42:14;16.65;;;15.65;;
12880;SDS011;6508;53.786;9.996;2022-08-18T00:44:57;17.23;;;16.23;;
12880;SDS011;6508;53.786;9.996;2022-08-18T00:47:25;16.20;;;15.27;;
12880;SDS011;6508;53.786;9.996;2022-08-18T00:50:16;15.30;;;14.35;;
12880;SDS011;6508;53.786;9.996;2022-08-18T00:52:45;13.77;;;13.10;;
12880;SDS011;6508;53.786;9.996;2022-08-18T00:55:15;13.20;;;12.50;;
12880;SDS011;6508;53.786;9.996;2022-08-18T00:57:44;14.45;;;13.65;;
12880;SDS011;6508;53.786;9.996;2022-08-18T01:00:13;13.68;;;13.05;;
12880;SDS011;6508;53.786;9.996;2022-08-18T01:02:42;12.80;;;12.20;;
12880;SDS011;6508;53.786;9.996;2022-08-18T01:05:12;12.10;;;11.50;;
12880;SDS011;6508;53.786;9.996;2022-08-18T01:07:44;12.98;;;12.15;;
12880;SDS011;6508;53.786;9.996;2022-08-18T01:10:13;12.45;;;11.65;;
12880;SDS011;6508;53.786;9.996;2022-08-18T01:12:42;12.18;;;11.25;;
12880;SDS011;6508;53.786;9.996;2022-08-18T01:15:13;12.15;;;11.45;;
12880;SDS011;6508;53.786;9.996;2022-08-18T01:17:55;12.32;;;11.52;;
12880;SDS011;6508;53.786;9.996;2022-08-18T01:20:42;12.05;;;11.45;;
12880;SDS011;6508;53.786;9.996;2022-08-18T01:23:31;13.43;;;12.63;;
12880;SDS011;6508;53.786;9.996;2022-08-18T01:26:00;11.02;;;10.52;;
12880;SDS011;6508;53.786;9.996;2022-08-18T01:28:28;12.75;;;12.05;;
12880;SDS011;6508;53.786;9.996;2022-08-18T01:30:56;11.88;;;11.10;;
12880;SDS011;6508;53.786;9.996;2022-08-18T01:33:24;12.05;;;11.35;;
12880;SDS011;6508;53.786;9.996;2022-08-18T01:35:55;12.88;;;12.07;;
12880;SDS011;6508;53.786;9.996;2022-08-18T01:38:24;12.93;;;12.23;;
12880;SDS011;6508;53.786;9.996;2022-08-18T01:40:53;11.55;;;10.85;;
12880;SDS011;6508;53.786;9.996;2022-08-18T01:43:40;12.75;;;12.15;;
12880;SDS011;6508;53.786;9.996;2022-08-18T01:46:08;12.02;;;11.23;;
12880;SDS011;6508;53.786;9.996;2022-08-18T01:48:36;11.48;;;10.88;;
12880;SDS011;6508;53.786;9.996;2022-08-18T01:51:04;12.65;;;11.90;;
12880;SDS011;6508;53.786;9.996;2022-08-18T01:53:33;10.77;;;10.18;;
12880;SDS011;6508;53.786;9.996;2022-08-18T01:56:02;10.25;;;9.85;;
12880;SDS011;6508;53.786;9.996;2022-08-18T01:58:31;12.25;;;11.18;;
12880;SDS011;6508;53.786;9.996;2022-08-18T02:00:59;9.75;;;9.15;;
12880;SDS011;6508;53.786;9.996;2022-08-18T02:03:28;10.25;;;9.75;;
12880;SDS011;6508;53.786;9.996;2022-08-18T02:05:57;9.85;;;9.25;;
12880;SDS011;6508;53.786;9.996;2022-08-18T02:08:26;9.88;;;9.38;;
12880;SDS011;6508;53.786;9.996;2022-08-18T02:10:54;11.05;;;10.35;;
12880;SDS011;6508;53.786;9.996;2022-08-18T02:13:23;9.38;;;8.77;;
12880;SDS011;6508;53.786;9.996;2022-08-18T02:15:51;9.77;;;9.18;;
12880;SDS011;6508;53.786;9.996;2022-08-18T02:18:20;10.60;;;9.98;;
12880;SDS011;6508;53.786;9.996;2022-08-18T02:21:08;10.27;;;9.57;;
12880;SDS011;6508;53.786;9.996;2022-08-18T02:23:36;9.60;;;9.15;;
12880;SDS011;6508;53.786;9.996;2022-08-18T02:26:04;9.90;;;9.40;;
12880;SDS011;6508;53.786;9.996;2022-08-18T02:28:34;10.25;;;9.65;;
12880;SDS011;6508;53.786;9.996;2022-08-18T02:31:02;10.20;;;9.73;;
12880;SDS011;6508;53.786;9.996;2022-08-18T02:33:30;10.52;;;9.93;;
12880;SDS011;6508;53.786;9.996;2022-08-18T02:35:58;10.73;;;10.02;;
12880;SDS011;6508;53.786;9.996;2022-08-18T02:38:25;10.88;;;10.38;;
12880;SDS011;6508;53.786;9.996;2022-08-18T02:40:59;11.45;;;10.93;;
12880;SDS011;6508;53.786;9.996;2022-08-18T02:43:29;10.48;;;9.98;;
12880;SDS011;6508;53.786;9.996;2022-08-18T02:46:04;11.07;;;10.52;;
12880;SDS011;6508;53.786;9.996;2022-08-18T02:48:32;11.18;;;10.63;;
12880;SDS011;6508;53.786;9.996;2022-08-18T02:51:01;12.40;;;11.40;;
12880;SDS011;6508;53.786;9.996;2022-08-18T02:53:29;12.10;;;11.32;;
12880;SDS011;6508;53.786;9.996;2022-08-18T02:56:03;11.98;;;11.18;;
12880;SDS011;6508;53.786;9.996;2022-08-18T02:58:34;11.65;;;11.00;;
12880;SDS011;6508;53.786;9.996;2022-08-18T03:01:01;11.57;;;10.75;;
12880;SDS011;6508;53.786;9.996;2022-08-18T03:03:31;11.85;;;11.25;;
12880;SDS011;6508;53.786;9.996;2022-08-18T03:05:58;11.13;;;10.43;;
12880;SDS011;6508;53.786;9.996;2022-08-18T03:08:26;12.15;;;11.43;;
12880;SDS011;6508;53.786;9.996;2022-08-18T03:10:53;11.90;;;11.07;;
12880;SDS011;6508;53.786;9.996;2022-08-18T03:13:21;12.77;;;11.95;;
12880;SDS011;6508;53.786;9.996;2022-08-18T03:15:48;11.32;;;10.63;;
12880;SDS011;6508;53.786;9.996;2022-08-18T03:18:22;12.52;;;11.63;;
12880;SDS011;6508;53.786;9.996;2022-08-18T03:20:51;13.32;;;12.48;;
12880;SDS011;6508;53.786;9.996;2022-08-18T03:23:19;12.32;;;11.52;;
12880;SDS011;6508;53.786;9.996;2022-08-18T03:25:55;12.20;;;11.57;;
12880;SDS011;6508;53.786;9.996;2022-08-18T03:28:23;12.88;;;11.88;;
12880;SDS011;6508;53.786;9.996;2022-08-18T03:30:50;13.65;;;12.73;;
12880;SDS011;6508;53.786;9.996;2022-08-18T03:33:18;12.80;;;12.00;;
12880;SDS011;6508;53.786;9.996;2022-08-18T03:35:46;14.02;;;11.45;;
12880;SDS011;6508;53.786;9.996;2022-08-18T03:38:16;12.05;;;11.30;;
12880;SDS011;6508;53.786;9.996;2022-08-18T03:40:49;13.40;;;12.45;;
12880;SDS011;6508;53.786;9.996;2022-08-18T03:43:17;12.60;;;11.82;;
12880;SDS011;6508;53.786;9.996;2022-08-18T03:46:05;14.45;;;13.18;;
12880;SDS011;6508;53.786;9.996;2022-08-18T03:48:35;12.68;;;11.80;;
12880;SDS011;6508;53.786;9.996;2022-08-18T03:51:05;14.27;;;13.25;;
12880;SDS011;6508;53.786;9.996;2022-08-18T03:53:35;13.65;;;12.85;;
12880;SDS011;6508;53.786;9.996;2022-08-18T03:56:05;13.80;;;12.95;;
12880;SDS011;6508;53.786;9.996;2022-08-18T03:58:34;13.13;;;12.27;;
12880;SDS011;6508;53.786;9.996;2022-08-18T04:01:02;15.00;;;14.02;;
12880;SDS011;6508;53.786;9.996;2022-08-18T04:03:30;14.35;;;13.45;;
12880;SDS011;6508;53.786;9.996;2022-08-18T04:05:58;15.50;;;14.27;;
12880;SDS011;6508;53.786;9.996;2022-08-18T04:08:26;15.95;;;14.95;;
12880;SDS011;6508;53.786;9.996;2022-08-18T04:10:55;15.85;;;14.57;;
12880;SDS011;6508;53.786;9.996;2022-08-18T04:13:22;15.90;;;14.80;;
12880;SDS011;6508;53.786;9.996;2022-08-18T04:15:50;15.02;;;13.95;;
12880;SDS011;6508;53.786;9.996;2022-08-18T04:18:18;16.08;;;14.98;;
12880;SDS011;6508;53.786;9.996;2022-08-18T04:20:45;15.27;;;14.18;;
12880;SDS011;6508;53.786;9.996;2022-08-18T04:23:25;14.07;;;13.18;;
12880;SDS011;6508;53.786;9.996;2022-08-18T04:25:55;14.50;;;13.52;;
12880;SDS011;6508;53.786;9.996;2022-08-18T04:28:24;15.40;;;14.40;;
12880;SDS011;6508;53.786;9.996;2022-08-18T04:30:52;14.55;;;13.55;;
12880;SDS011;6508;53.786;9.996;2022-08-18T04:33:20;14.23;;;13.38;;
12880;SDS011;6508;53.786;9.996;2022-08-18T04:35:48;14.40;;;13.23;;
12880;SDS011;6508;53.786;9.996;2022-08-18T04:38:15;14.63;;;13.32;;
12880;SDS011;6508;53.786;9.996;2022-08-18T04:40:43;17.33;;;16.23;;
12880;SDS011;6508;53.786;9.996;2022-08-18T04:43:12;15.20;;;14.20;;
12880;SDS011;6508;53.786;9.996;2022-08-18T04:45:40;16.05;;;15.05;;
12880;SDS011;6508;53.786;9.996;2022-08-18T04:48:10;17.05;;;15.85;;
12880;SDS011;6508;53.786;9.996;2022-08-18T04:50:38;17.23;;;16.13;;
12880;SDS011;6508;53.786;9.996;2022-08-18T04:53:06;18.15;;;16.85;;
12880;SDS011;6508;53.786;9.996;2022-08-18T04:55:52;17.85;;;16.63;;
12880;SDS011;6508;53.786;9.996;2022-08-18T04:58:22;17.92;;;16.73;;
12880;SDS011;6508;53.786;9.996;2022-08-18T05:00:55;17.77;;;16.38;;
12880;SDS011;6508;53.786;9.996;2022-08-18T05:03:23;16.38;;;15.23;;
12880;SDS011;6508;53.786;9.996;2022-08-18T05:05:52;16.90;;;15.68;;
12880;SDS011;6508;53.786;9.996;2022-08-18T05:08:19;18.35;;;17.15;;
12880;SDS011;6508;53.786;9.996;2022-08-18T05:10:51;17.10;;;16.00;;
12880;SDS011;6508;53.786;9.996;2022-08-18T05:13:19;19.33;;;18.08;;
12880;SDS011;6508;53.786;9.996;2022-08-18T05:15:52;19.60;;;17.90;;
12880;SDS011;6508;53.786;9.996;2022-08-18T05:18:36;18.17;;;16.60;;
12880;SDS011;6508;53.786;9.996;2022-08-18T05:21:08;20.25;;;18.75;;
12880;SDS011;6508;53.786;9.996;2022-08-18T05:23:39;20.27;;;18.42;;
12880;SDS011;6508;53.786;9.996;2022-08-18T05:26:07;17.90;;;16.40;;
12880;SDS011;6508;53.786;9.996;2022-08-18T05:28:36;21.70;;;19.83;;
12880;SDS011;6508;53.786;9.996;2022-08-18T05:31:09;18.23;;;16.83;;
12880;SDS011;6508;53.786;9.996;2022-08-18T05:33:39;20.83;;;19.25;;
12880;SDS011;6508;53.786;9.996;2022-08-18T05:36:09;20.52;;;18.83;;
12880;SDS011;6508;53.786;9.996;2022-08-18T05:38:47;17.65;;;16.40;;
12880;SDS011;6508;53.786;9.996;2022-08-18T05:41:20;17.15;;;15.88;;
12880;SDS011;6508;53.786;9.996;2022-08-18T05:43:49;17.88;;;16.60;;
12880;SDS011;6508;53.786;9.996;2022-08-18T05:46:19;16.45;;;15.25;;
12880;SDS011;6508;53.786;9.996;2022-08-18T05:48:49;15.98;;;14.93;;
12880;SDS011;6508;53.786;9.996;2022-08-18T05:51:25;16.63;;;15.52;;
12880;SDS011;6508;53.786;9.996;2022-08-18T05:53:55;16.35;;;15.15;;
12880;SDS011;6508;53.786;9.996;2022-08-18T05:56:40;14.93;;;13.80;;
12880;SDS011;6508;53.786;9.996;2022-08-18T05:59:17;14.10;;;13.25;;
12880;SDS011;6508;53.786;9.996;2022-08-18T06:01:49;15.32;;;14.20;;
12880;SDS011;6508;53.786;9.996;2022-08-18T06:04:21;14.13;;;13.15;;
12880;SDS011;6508;53.786;9.996;2022-08-18T06:06:49;11.95;;;11.25;;
12880;SDS011;6508;53.786;9.996;2022-08-18T06:09:18;12.57;;;11.45;;
12880;SDS011;6508;53.786;9.996;2022-08-18T06:11:48;12.40;;;11.45;;
12880;SDS011;6508;53.786;9.996;2022-08-18T06:14:16;12.32;;;11.43;;
12880;SDS011;6508;53.786;9.996;2022-08-18T06:16:50;13.00;;;12.18;;
12880;SDS011;6508;53.786;9.996;2022-08-18T06:19:33;14.02;;;13.23;;
12880;SDS011;6508;53.786;9.996;2022-08-18T06:22:06;13.88;;;12.88;;
12880;SDS011;6508;53.786;9.996;2022-08-18T06:24:39;13.98;;;13.07;;
12880;SDS011;6508;53.786;9.996;2022-08-18T06:27:09;13.00;;;12.35;;
12880;SDS011;6508;53.786;9.996;2022-08-18T06:29:41;14.40;;;13.50;;
12880;SDS011;6508;53.786;9.996;2022-08-18T06:32:17;14.02;;;12.90;;
12880;SDS011;6508;53.786;9.996;2022-08-18T06:34:52;14.70;;;13.77;;
12880;SDS011;6508;53.786;9.996;2022-08-18T06:37:26;15.07;;;14.27;;
12880;SDS011;6508;53.786;9.996;2022-08-18T06:39:56;15.43;;;14.52;;
12880;SDS011;6508;53.786;9.996;2022-08-18T06:42:25;14.68;;;13.57;;
12880;SDS011;6508;53.786;9.996;2022-08-18T06:44:57;12.90;;;12.30;;
12880;SDS011;6508;53.786;9.996;2022-08-18T06:47:31;13.70;;;12.80;;
12880;SDS011;6508;53.786;9.996;2022-08-18T06:50:02;14.02;;;13.23;;
12880;SDS011;6508;53.786;9.996;2022-08-18T06:52:31;14.75;;;13.80;;
12880;SDS011;6508;53.786;9.996;2022-08-18T06:55:00;13.25;;;12.38;;
12880;SDS011;6508;53.786;9.996;2022-08-18T06:57:30;13.15;;;12.35;;
12880;SDS011;6508;53.786;9.996;2022-08-18T07:00:01;14.63;;;13.63;;
12880;SDS011;6508;53.786;9.996;2022-08-18T07:02:35;14.15;;;13.32;;
12880;SDS011;6508;53.786;9.996;2022-08-18T07:05:05;14.48;;;13.45;;
12880;SDS011;6508;53.786;9.996;2022-08-18T07:07:34;14.07;;;13.30;;
12880;SDS011;6508;53.786;9.996;2022-08-18T07:10:30;14.02;;;13.23;;
12880;SDS011;6508;53.786;9.996;2022-08-18T07:13:06;14.13;;;13.30;;
12880;SDS011;6508;53.786;9.996;2022-08-18T07:15:34;17.17;;;15.98;;
12880;SDS011;6508;53.786;9.996;2022-08-18T07:18:04;17.90;;;16.52;;
12880;SDS011;6508;53.786;9.996;2022-08-18T07:20:39;16.75;;;15.27;;
12880;SDS011;6508;53.786;9.996;2022-08-18T07:23:07;14.93;;;14.13;;
12880;SDS011;6508;53.786;9.996;2022-08-18T07:25:37;14.48;;;13.55;;
12880;SDS011;6508;53.786;9.996;2022-08-18T07:28:05;14.75;;;13.77;;
12880;SDS011;6508;53.786;9.996;2022-08-18T07:30:34;16.73;;;15.70;;
12880;SDS011;6508;53.786;9.996;2022-08-18T07:33:10;19.75;;;18.35;;
12880;SDS011;6508;53.786;9.996;2022-08-18T07:35:41;18.55;;;17.05;;
12880;SDS011;6508;53.786;9.996;2022-08-18T07:38:12;16.55;;;15.38;;
12880;SDS011;6508;53.786;9.996;2022-08-18T07:41:04;16.70;;;15.57;;
12880;SDS011;6508;53.786;9.996;2022-08-18T07:43:33;19.25;;;17.95;;
12880;SDS011;6508;53.786;9.996;2022-08-18T07:46:04;18.23;;;17.13;;
12880;SDS011;6508;53.786;9.996;2022-08-18T07:48:35;21.65;;;19.85;;
12880;SDS011;6508;53.786;9.996;2022-08-18T07:51:07;24.73;;;22.83;;
12880;SDS011;6508;53.786;9.996;2022-08-18T07:53:48;26.92;;;24.63;;
12880;SDS011;6508;53.786;9.996;2022-08-18T07:56:22;28.95;;;26.35;;
12880;SDS011;6508;53.786;9.996;2022-08-18T07:58:55;27.88;;;25.38;;
12880;SDS011;6508;53.786;9.996;2022-08-18T08:01:25;26.45;;;24.15;;
12880;SDS011;6508;53.786;9.996;2022-08-18T08:04:02;27.98;;;25.38;;
12880;SDS011;6508;53.786;9.996;2022-08-18T08:06:34;27.95;;;25.33;;
12880;SDS011;6508;53.786;9.996;2022-08-18T08:09:06;31.02;;;26.25;;
12880;SDS011;6508;53.786;9.996;2022-08-18T08:11:40;28.88;;;25.90;;
12880;SDS011;6508;53.786;9.996;2022-08-18T08:14:17;33.67;;;29.98;;
12880;SDS011;6508;53.786;9.996;2022-08-18T08:16:55;35.50;;;28.98;;
12880;SDS011;6508;53.786;9.996;2022-08-18T08:19:28;30.17;;;26.58;;
12880;SDS011;6508;53.786;9.996;2022-08-18T08:22:22;31.30;;;27.77;;
12880;SDS011;6508;53.786;9.996;2022-08-18T08:24:57;30.15;;;26.30;;
12880;SDS011;6508;53.786;9.996;2022-08-18T08:27:29;28.73;;;25.80;;
12880;SDS011;6508;53.786;9.996;2022-08-18T08:29:59;26.55;;;23.83;;
12880;SDS011;6508;53.786;9.996;2022-08-18T08:32:30;28.70;;;25.77;;
12880;SDS011;6508;53.786;9.996;2022-08-18T08:35:01;27.65;;;24.83;;
12880;SDS011;6508;53.786;9.996;2022-08-18T08:37:32;29.10;;;25.92;;
12880;SDS011;6508;53.786;9.996;2022-08-18T08:40:05;28.33;;;25.35;;
12880;SDS011;6508;53.786;9.996;2022-08-18T08:42:36;28.73;;;25.90;;
12880;SDS011;6508;53.786;9.996;2022-08-18T08:45:08;27.45;;;23.92;;
12880;SDS011;6508;53.786;9.996;2022-08-18T08:47:37;25.50;;;22.80;;
12880;SDS011;6508;53.786;9.996;2022-08-18T08:50:09;27.13;;;24.38;;
12880;SDS011;6508;53.786;9.996;2022-08-18T08:52:39;25.60;;;22.83;;
12880;SDS011;6508;53.786;9.996;2022-08-18T08:55:08;25.58;;;23.10;;
12880;SDS011;6508;53.786;9.996;2022-08-18T08:57:38;24.88;;;22.33;;
12880;SDS011;6508;53.786;9.996;2022-08-18T09:00:09;23.52;;;21.25;;
12880;SDS011;6508;53.786;9.996;2022-08-18T09:02:44;26.35;;;23.08;;
12880;SDS011;6508;53.786;9.996;2022-08-18T09:05:17;25.55;;;22.95;;
12880;SDS011;6508;53.786;9.996;2022-08-18T09:10:33;23.02;;;20.63;;
12880;SDS011;6508;53.786;9.996;2022-08-18T09:13:09;24.75;;;22.20;;
12880;SDS011;6508;53.786;9.996;2022-08-18T09:15:43;25.85;;;23.13;;
12880;SDS011;6508;53.786;9.996;2022-08-18T09:18:18;24.10;;;21.80;;
12880;SDS011;6508;53.786;9.996;2022-08-18T09:20:52;25.98;;;23.42;;
12880;SDS011;6508;53.786;9.996;2022-08-18T09:23:23;28.85;;;24.70;;
12880;SDS011;6508;53.786;9.996;2022-08-18T09:25:51;28.25;;;25.38;;
12880;SDS011;6508;53.786;9.996;2022-08-18T09:28:21;26.55;;;23.95;;
12880;SDS011;6508;53.786;9.996;2022-08-18T09:30:52;25.52;;;22.88;;
12880;SDS011;6508;53.786;9.996;2022-08-18T09:33:25;26.80;;;24.02;;
12880;SDS011;6508;53.786;9.996;2022-08-18T09:36:16;29.08;;;25.98;;
12880;SDS011;6508;53.786;9.996;2022-08-18T09:38:51;28.73;;;25.73;;
12880;SDS011;6508;53.786;9.996;2022-08-18T09:41:47;29.88;;;26.13;;
12880;SDS011;6508;53.786;9.996;2022-08-18T09:46:58;28.73;;;25.60;;
12880;SDS011;6508;53.786;9.996;2022-08-18T09:49:31;30.52;;;27.17;;
12880;SDS011;6508;53.786;9.996;2022-08-18T09:55:00;29.27;;;25.27;;
12880;SDS011;6508;53.786;9.996;2022-08-18T09:57:29;27.80;;;24.20;;
12880;SDS011;6508;53.786;9.996;2022-08-18T10:00:24;31.58;;;27.30;;
12880;SDS011;6508;53.786;9.996;2022-08-18T10:05:32;27.23;;;24.45;;
12880;SDS011;6508;53.786;9.996;2022-08-18T10:10:52;29.40;;;25.67;;
12880;SDS011;6508;53.786;9.996;2022-08-18T10:13:31;31.05;;;25.38;;
12880;SDS011;6508;53.786;9.996;2022-08-18T10:16:06;28.77;;;25.70;;
12880;SDS011;6508;53.786;9.996;2022-08-18T10:18:45;30.27;;;25.67;;
12880;SDS011;6508;53.786;9.996;2022-08-18T10:21:19;27.55;;;24.05;;
12880;SDS011;6508;53.786;9.996;2022-08-18T10:23:57;28.95;;;25.85;;
12880;SDS011;6508;53.786;9.996;2022-08-18T10:29:50;30.02;;;24.48;;
12880;SDS011;6508;53.786;9.996;2022-08-18T10:35:03;34.53;;;25.90;;
12880;SDS011;6508;53.786;9.996;2022-08-18T10:37:32;29.40;;;26.23;;
12880;SDS011;6508;53.786;9.996;2022-08-18T10:40:03;28.10;;;25.17;;
12880;SDS011;6508;53.786;9.996;2022-08-18T10:42:32;29.33;;;26.25;;
12880;SDS011;6508;53.786;9.996;2022-08-18T10:45:07;30.73;;;27.42;;
12880;SDS011;6508;53.786;9.996;2022-08-18T10:47:36;29.42;;;26.27;;
12880;SDS011;6508;53.786;9.996;2022-08-18T10:50:07;31.00;;;27.67;;
12880;SDS011;6508;53.786;9.996;2022-08-18T10:52:40;27.98;;;25.25;;
12880;SDS011;6508;53.786;9.996;2022-08-18T10:55:18;26.35;;;23.63;;
12880;SDS011;6508;53.786;9.996;2022-08-18T11:00:37;29.38;;;26.23;;
12880;SDS011;6508;53.786;9.996;2022-08-18T11:03:10;28.35;;;25.42;;
12880;SDS011;6508;53.786;9.996;2022-08-18T11:06:02;25.75;;;23.02;;
12880;SDS011;6508;53.786;9.996;2022-08-18T11:08:30;27.52;;;24.65;;
12880;SDS011;6508;53.786;9.996;2022-08-18T11:11:05;30.00;;;27.00;;
12880;SDS011;6508;53.786;9.996;2022-08-18T11:13:56;28.23;;;25.25;;
12880;SDS011;6508;53.786;9.996;2022-08-18T11:16:34;31.40;;;28.27;;
12880;SDS011;6508;53.786;9.996;2022-08-18T11:19:07;28.58;;;25.80;;
12880;SDS011;6508;53.786;9.996;2022-08-18T11:21:40;28.48;;;25.50;;
12880;SDS011;6508;53.786;9.996;2022-08-18T11:24:11;28.73;;;25.60;;
12880;SDS011;6508;53.786;9.996;2022-08-18T11:26:42;26.95;;;24.35;;
12880;SDS011;6508;53.786;9.996;2022-08-18T11:29:19;27.02;;;24.15;;
12880;SDS011;6508;53.786;9.996;2022-08-18T11:31:49;24.73;;;22.42;;
12880;SDS011;6508;53.786;9.996;2022-08-18T11:34:21;24.42;;;21.92;;
12880;SDS011;6508;53.786;9.996;2022-08-18T11:36:56;25.10;;;22.55;;
12880;SDS011;6508;53.786;9.996;2022-08-18T11:39:24;22.08;;;19.90;;
12880;SDS011;6508;53.786;9.996;2022-08-18T11:42:13;21.80;;;19.65;;
12880;SDS011;6508;53.786;9.996;2022-08-18T11:44:52;21.17;;;19.27;;
12880;SDS011;6508;53.786;9.996;2022-08-18T11:47:22;24.42;;;22.02;;
12880;SDS011;6508;53.786;9.996;2022-08-18T11:49:56;24.15;;;21.85;;
12880;SDS011;6508;53.786;9.996;2022-08-18T11:52:29;22.73;;;20.77;;
12880;SDS011;6508;53.786;9.996;2022-08-18T11:55:02;22.05;;;20.08;;
12880;SDS011;6508;53.786;9.996;2022-08-18T11:57:50;23.17;;;20.85;;
12880;SDS011;6508;53.786;9.996;2022-08-18T12:00:35;20.00;;;18.20;;
12880;SDS011;6508;53.786;9.996;2022-08-18T12:03:11;23.08;;;20.98;;
12880;SDS011;6508;53.786;9.996;2022-08-18T12:05:44;22.20;;;20.17;;
12880;SDS011;6508;53.786;9.996;2022-08-18T12:08:22;18.98;;;16.90;;
12880;SDS011;6508;53.786;9.996;2022-08-18T12:11:13;20.35;;;18.52;;
12880;SDS011;6508;53.786;9.996;2022-08-18T12:13:57;19.25;;;17.55;;
12880;SDS011;6508;53.786;9.996;2022-08-18T12:16:46;18.88;;;17.20;;
12880;SDS011;6508;53.786;9.996;2022-08-18T12:19:17;18.90;;;17.30;;
12880;SDS011;6508;53.786;9.996;2022-08-18T12:22:12;17.60;;;16.13;;
12880;SDS011;6508;53.786;9.996;2022-08-18T12:24:42;17.30;;;15.85;;
12880;SDS011;6508;53.786;9.996;2022-08-18T12:27:14;18.98;;;17.02;;
12880;SDS011;6508;53.786;9.996;2022-08-18T12:29:47;16.88;;;15.52;;
12880;SDS011;6508;53.786;9.996;2022-08-18T12:32:15;17.65;;;16.25;;
12880;SDS011;6508;53.786;9.996;2022-08-18T12:35:05;17.10;;;15.82;;
12880;SDS011;6508;53.786;9.996;2022-08-18T12:37:35;17.70;;;16.30;;
12880;SDS011;6508;53.786;9.996;2022-08-18T12:40:24;16.08;;;14.77;;
12880;SDS011;6508;53.786;9.996;2022-08-18T12:42:52;15.82;;;14.43;;
12880;SDS011;6508;53.786;9.996;2022-08-18T12:45:21;16.45;;;15.15;;
12880;SDS011;6508;53.786;9.996;2022-08-18T12:47:52;14.85;;;13.73;;
12880;SDS011;6508;53.786;9.996;2022-08-18T12:50:21;16.75;;;15.30;;
12880;SDS011;6508;53.786;9.996;2022-08-18T12:53:00;14.95;;;13.77;;
12880;SDS011;6508;53.786;9.996;2022-08-18T12:55:28;14.50;;;13.50;;
12880;SDS011;6508;53.786;9.996;2022-08-18T12:57:58;14.60;;;13.48;;
12880;SDS011;6508;53.786;9.996;2022-08-18T13:00:25;15.60;;;14.38;;
12880;SDS011;6508;53.786;9.996;2022-08-18T13:02:54;20.85;;;19.25;;
12880;SDS011;6508;53.786;9.996;2022-08-18T13:05:24;26.45;;;23.95;;
12880;SDS011;6508;53.786;9.996;2022-08-18T13:07:56;30.35;;;27.45;;
12880;SDS011;6508;53.786;9.996;2022-08-18T13:10:24;27.98;;;25.48;;
12880;SDS011;6508;53.786;9.996;2022-08-18T13:13:11;25.75;;;23.25;;
12880;SDS011;6508;53.786;9.996;2022-08-18T13:15:39;24.58;;;22.35;;
12880;SDS011;6508;53.786;9.996;2022-08-18T13:18:21;27.20;;;24.63;;
12880;SDS011;6508;53.786;9.996;2022-08-18T13:20:55;28.52;;;25.73;;
12880;SDS011;6508;53.786;9.996;2022-08-18T13:23:24;26.77;;;24.08;;
12880;SDS011;6508;53.786;9.996;2022-08-18T13:25:53;27.67;;;25.17;;
12880;SDS011;6508;53.786;9.996;2022-08-18T13:28:28;29.63;;;26.75;;
12880;SDS011;6508;53.786;9.996;2022-08-18T13:31:01;25.00;;;22.75;;
12880;SDS011;6508;53.786;9.996;2022-08-18T13:33:36;25.45;;;23.15;;
12880;SDS011;6508;53.786;9.996;2022-08-18T13:36:25;21.13;;;19.23;;
12880;SDS011;6508;53.786;9.996;2022-08-18T13:39:11;18.58;;;16.83;;
12880;SDS011;6508;53.786;9.996;2022-08-18T13:41:39;17.98;;;16.35;;
12880;SDS011;6508;53.786;9.996;2022-08-18T13:44:11;18.80;;;17.20;;
12880;SDS011;6508;53.786;9.996;2022-08-18T13:46:45;19.67;;;18.00;;
12880;SDS011;6508;53.786;9.996;2022-08-18T13:49:14;19.35;;;17.75;;
12880;SDS011;6508;53.786;9.996;2022-08-18T13:51:51;19.63;;;18.02;;
12880;SDS011;6508;53.786;9.996;2022-08-18T13:54:23;19.35;;;17.75;;
12880;SDS011;6508;53.786;9.996;2022-08-18T13:56:57;17.52;;;15.93;;
12880;SDS011;6508;53.786;9.996;2022-08-18T13:59:25;16.95;;;15.50;;
12880;SDS011;6508;53.786;9.996;2022-08-18T14:01:56;18.75;;;17.13;;
12880;SDS011;6508;53.786;9.996;2022-08-18T14:04:26;20.70;;;19.00;;
12880;SDS011;6508;53.786;9.996;2022-08-18T14:06:55;16.83;;;15.48;;
12880;SDS011;6508;53.786;9.996;2022-08-18T14:09:27;16.05;;;14.75;;
12880;SDS011;6508;53.786;9.996;2022-08-18T14:12:02;14.52;;;13.38;;
12880;SDS011;6508;53.786;9.996;2022-08-18T14:14:31;13.70;;;12.65;;
12880;SDS011;6508;53.786;9.996;2022-08-18T14:16:59;12.88;;;11.88;;
12880;SDS011;6508;53.786;9.996;2022-08-18T14:19:26;12.55;;;11.75;;
12880;SDS011;6508;53.786;9.996;2022-08-18T14:22:13;13.88;;;12.88;;
12880;SDS011;6508;53.786;9.996;2022-08-18T14:25:00;14.73;;;13.63;;
12880;SDS011;6508;53.786;9.996;2022-08-18T14:27:48;15.57;;;14.43;;
12880;SDS011;6508;53.786;9.996;2022-08-18T14:30:22;16.77;;;15.32;;
12880;SDS011;6508;53.786;9.996;2022-08-18T14:32:50;15.77;;;14.52;;
12880;SDS011;6508;53.786;9.996;2022-08-18T14:35:19;16.52;;;15.00;;
12880;SDS011;6508;53.786;9.996;2022-08-18T14:38:02;16.10;;;14.90;;
12880;SDS011;6508;53.786;9.996;2022-08-18T14:40:31;14.27;;;13.27;;
12880;SDS011;6508;53.786;9.996;2022-08-18T14:42:59;14.38;;;13.38;;
12880;SDS011;6508;53.786;9.996;2022-08-18T14:45:32;14.43;;;13.43;;
12880;SDS011;6508;53.786;9.996;2022-08-18T14:48:01;14.50;;;13.20;;
12880;SDS011;6508;53.786;9.996;2022-08-18T14:50:33;16.08;;;14.68;;
12880;SDS011;6508;53.786;9.996;2022-08-18T14:53:04;14.07;;;12.98;;
12880;SDS011;6508;53.786;9.996;2022-08-18T14:55:32;15.05;;;13.93;;
12880;SDS011;6508;53.786;9.996;2022-08-18T14:58:01;14.70;;;13.70;;
12880;SDS011;6508;53.786;9.996;2022-08-18T15:00:32;16.33;;;15.10;;
12880;SDS011;6508;53.786;9.996;2022-08-18T15:03:19;13.98;;;12.95;;
12880;SDS011;6508;53.786;9.996;2022-08-18T15:05:54;13.75;;;12.75;;
12880;SDS011;6508;53.786;9.996;2022-08-18T15:08:23;14.68;;;13.57;;
12880;SDS011;6508;53.786;9.996;2022-08-18T15:10:52;15.38;;;14.27;;
12880;SDS011;6508;53.786;9.996;2022-08-18T15:13:19;15.70;;;14.60;;
12880;SDS011;6508;53.786;9.996;2022-08-18T15:15:51;13.80;;;12.80;;
12880;SDS011;6508;53.786;9.996;2022-08-18T15:18:27;14.00;;;13.05;;
12880;SDS011;6508;53.786;9.996;2022-08-18T15:20:56;12.45;;;11.75;;
12880;SDS011;6508;53.786;9.996;2022-08-18T15:24:02;12.98;;;12.00;;
12880;SDS011;6508;53.786;9.996;2022-08-18T15:26:47;12.40;;;11.60;;
12880;SDS011;6508;53.786;9.996;2022-08-18T15:29:23;12.13;;;11.32;;
12880;SDS011;6508;53.786;9.996;2022-08-18T15:31:54;11.98;;;11.07;;